Fri, 16 Apr 2021 00:46:03 UTC

Information for RPM brotli-1.0.9-3.fc34.x86_64.rpm

ID23382211
Namebrotli
Version1.0.9
Release3.fc34
Epoch
Archx86_64
SummaryLossless compression algorithm
DescriptionBrotli is a generic-purpose lossless compression algorithm that compresses data using a combination of a modern variant of the LZ77 algorithm, Huffman coding and 2nd order context modeling, with a compression ratio comparable to the best currently available general-purpose compression methods. It is similar in speed with deflate but offers more dense compression.
Build Time2020-10-01 21:04:44 GMT
Size331,903
0b1799f190ca91c2f8e8760e99120585
LicenseMIT
Buildrootf34-build-23122984-2178606
Provides
brotli = 1.0.9-3.fc34
brotli(x86-64) = 1.0.9-3.fc34
Obsoletes No Obsoletes
Conflicts No Conflicts
Requires
libbrotli(x86-64) = 1.0.9-3.fc34
libc.so.6()(64bit)
libc.so.6(GLIBC_2.14)(64bit)
libc.so.6(GLIBC_2.2.5)(64bit)
libc.so.6(GLIBC_2.3.4)(64bit)
libc.so.6(GLIBC_2.4)(64bit)
libm.so.6()(64bit)
libm.so.6(GLIBC_2.29)(64bit)
rpmlib(CompressedFileNames) <= 3.0.4-1
rpmlib(FileDigests) <= 4.6.0-1
rpmlib(PayloadFilesHavePrefix) <= 4.0-1
rpmlib(PayloadIsZstd) <= 5.4.18-1
rtld(GNU_HASH)
Recommends No Recommends
Suggests No Suggests
Supplements No Supplements
Enhances No Enhances
Files
1 through 4 of 4
Name ascending sort Size
/usr/bin/brotli772,464
/usr/lib/.build-id0
/usr/lib/.build-id/010
/usr/lib/.build-id/01/3b618dad5c5ce346ac9a60224f48e0708bc79826
Component of
Page:
1 through 50 of 38925 >>>
Buildroot descending sort Created State
f34-build-25476417-2913276 2021-02-01 18:47:50 expired
f34-build-25476139-2913276 2021-02-01 17:46:28 expired
f34-build-25476074-2913245 2021-02-01 17:32:33 expired
f34-build-25475943-2913038 2021-02-01 17:07:16 expired
f34-build-25475923-2913038 2021-02-01 17:05:46 expired
f34-build-25475835-2912954 2021-02-01 16:45:10 expired
f34-build-25475789-2912954 2021-02-01 16:43:11 expired
f34-build-25475781-2912954 2021-02-01 16:42:51 expired
f34-build-25475652-2912875 2021-02-01 16:28:12 expired
f34-build-25475508-2912766 2021-02-01 16:19:54 expired
f34-build-side-36621-25475407-2912663 2021-02-01 15:55:24 expired
f34-build-25475339-2912544 2021-02-01 15:41:05 expired
f34-build-25475336-2912544 2021-02-01 15:40:57 expired
f34-build-25475324-2912544 2021-02-01 15:39:26 expired
f34-build-25475322-2912544 2021-02-01 15:39:20 expired
f34-build-25475285-2912544 2021-02-01 15:38:10 expired
f34-build-25475281-2912544 2021-02-01 15:38:07 expired
f34-build-25475274-2912544 2021-02-01 15:37:55 expired
f34-build-25475272-2912544 2021-02-01 15:37:54 expired
f34-build-25475261-2912544 2021-02-01 15:37:40 expired
f34-build-25475253-2912544 2021-02-01 15:37:30 expired
f34-build-25475241-2912544 2021-02-01 15:37:14 expired
f34-build-25475153-2912497 2021-02-01 15:30:27 expired
f34-build-25475096-2912468 2021-02-01 15:27:27 expired
f34-build-side-36621-25475040-2912412 2021-02-01 15:20:56 expired
f34-build-25474882-2912249 2021-02-01 15:02:17 expired
f34-build-25474833-2912156 2021-02-01 14:56:52 expired
f34-build-25474826-2912156 2021-02-01 14:56:36 expired
f34-build-25474667-2912067 2021-02-01 14:41:18 expired
f34-build-25474518-2912067 2021-02-01 14:30:11 expired
f34-build-25474510-2912067 2021-02-01 14:29:50 expired
f34-build-25474507-2912067 2021-02-01 14:29:45 expired
f34-build-25474278-2911954 2021-02-01 14:13:33 expired
f34-build-25474214-2911954 2021-02-01 14:05:28 expired
f34-build-25474134-2911954 2021-02-01 14:02:30 expired
f34-build-25474130-2911954 2021-02-01 14:02:06 expired
f34-build-25473978-2911833 2021-02-01 13:48:20 expired
f34-build-25473931-2911833 2021-02-01 13:43:48 expired
f34-build-25473919-2911833 2021-02-01 13:42:46 expired
f34-build-25473853-2911722 2021-02-01 13:37:30 expired
f34-build-25473661-2911722 2021-02-01 13:29:53 expired
f34-build-25473649-2911722 2021-02-01 13:29:32 expired
f34-build-25473437-2911722 2021-02-01 13:21:23 expired
f34-build-25473381-2911627 2021-02-01 13:14:30 expired
f34-build-25473182-2911451 2021-02-01 12:59:06 expired
f34-build-25472949-2911381 2021-02-01 12:44:08 expired
f34-build-side-36729-25472922-2911417 2021-02-01 12:42:30 expired
f34-build-25472757-2911246 2021-02-01 12:18:37 expired
f34-build-25472523-2911139 2021-02-01 11:59:06 expired
f34-build-25472507-2911139 2021-02-01 11:58:43 expired